Time;durP1;ratioP1;P1;durP2;ratioP2;P2;SDS_P1;SDS_P2;PMS_P1;PMS_P2;Temp;Humidity;BMP_temperature;BMP_pressure;BME280_temperature;BME280_humidity;BME280_pressure;Samples;Min_cycle;Max_cycle;Signal;HPM_P1;HPM_P2
2022/01/17 00:02:25;;;;;;;35.05;19.95;;;2.20;99.90;;;;;;6124188;23;20058;-82
2022/01/17 00:04:51;;;;;;;33.97;20.45;;;1.30;99.90;;;;;;6125044;23;20036;-81
2022/01/17 00:07:17;;;;;;;35.72;20.67;;;1.20;99.90;;;;;;6125302;23;20010;-82
2022/01/17 00:09:43;;;;;;;36.63;20.40;;;1.30;99.90;;;;;;6124702;23;20433;-82
2022/01/17 00:12:09;;;;;;;37.03;21.40;;;1.20;99.90;;;;;;6125096;23;20171;-81
2022/01/17 00:14:39;;;;;;;38.88;22.00;;;1.30;99.90;;;;;;6123492;23;20424;-82
2022/01/17 00:17:22;;;;;;;37.42;21.58;;;1.50;99.90;;;;;;6124943;23;20085;-81
2022/01/17 00:19:53;;;;;;;36.40;21.55;;;1.30;99.90;;;;;;6126281;23;20054;-82
2022/01/17 00:22:20;;;;;;;40.30;22.30;;;1.30;99.90;;;;;;6125277;23;20062;-82
2022/01/17 00:24:47;;;;;;;39.28;21.05;;;1.20;99.90;;;;;;6125826;23;19998;-81
2022/01/17 00:27:15;;;;;;;38.33;22.35;;;1.70;99.90;;;;;;6124914;23;20010;-82
2022/01/17 00:29:41;;;;;;;37.70;22.45;;;1.10;99.90;;;;;;6125535;23;20002;-82
2022/01/17 00:32:07;;;;;;;40.75;23.08;;;1.00;99.90;;;;;;6124516;23;20339;-82
2022/01/17 00:34:34;;;;;;;40.75;22.00;;;1.80;99.90;;;;;;6124566;23;20002;-82
2022/01/17 00:37:00;;;;;;;41.58;22.85;;;1.10;99.90;;;;;;6125083;23;20106;-82
2022/01/17 00:39:26;;;;;;;39.92;22.27;;;1.10;99.90;;;;;;6124402;23;20041;-82
2022/01/17 00:41:51;;;;;;;42.67;23.60;;;1.10;99.90;;;;;;6124519;23;20017;-82
2022/01/17 00:44:22;;;;;;;40.85;23.25;;;1.20;99.90;;;;;;6124479;23;20008;-83
2022/01/17 00:46:50;;;;;;;41.45;23.30;;;1.30;99.90;;;;;;6124467;23;20002;-81
2022/01/17 00:49:16;;;;;;;37.13;21.45;;;1.20;99.90;;;;;;6124703;23;20333;-82
2022/01/17 00:51:42;;;;;;;45.00;24.10;;;1.30;99.90;;;;;;6125449;23;20061;-81
2022/01/17 00:54:08;;;;;;;43.08;23.42;;;1.20;99.90;;;;;;6124291;23;20390;-81
2022/01/17 00:56:34;;;;;;;42.22;23.85;;;1.20;99.90;;;;;;6124520;23;20053;-82
2022/01/17 00:58:59;;;;;;;46.83;24.45;;;1.30;99.90;;;;;;6125792;23;19982;-81
2022/01/17 01:01:25;;;;;;;45.45;24.00;;;1.20;99.90;;;;;;6123724;23;20432;-81
2022/01/17 01:03:51;;;;;;;41.00;23.83;;;1.40;99.90;;;;;;6124815;23;20057;-81
2022/01/17 01:06:17;;;;;;;43.10;23.73;;;1.30;99.90;;;;;;6124380;23;20027;-81
2022/01/17 01:08:42;;;;;;;41.38;24.55;;;1.30;99.90;;;;;;6124274;23;20348;-81
2022/01/17 01:11:09;;;;;;;43.60;22.13;;;1.30;99.90;;;;;;6124822;23;19998;-81
2022/01/17 01:13:35;;;;;;;40.92;24.02;;;1.30;99.90;;;;;;6124466;23;20398;-82
2022/01/17 01:29:19;;;;;;;42.90;24.10;;;1.50;99.90;;;;;;6123548;23;20337;-82
2022/01/17 01:34:12;;;;;;;43.28;24.20;;;1.90;99.90;;;;;;6124439;23;20059;-82
2022/01/17 01:36:38;;;;;;;43.85;24.67;;;1.50;99.90;;;;;;6124475;23;20025;-82
2022/01/17 01:39:06;;;;;;;43.60;24.42;;;1.30;99.90;;;;;;6124736;23;20002;-82
2022/01/17 01:41:43;;;;;;;40.85;23.83;;;1.20;99.90;;;;;;6124239;23;20163;-82
2022/01/17 01:44:17;;;;;;;45.15;24.73;;;1.60;99.90;;;;;;6122190;23;20037;-82
2022/01/17 01:46:45;;;;;;;41.42;24.00;;;1.20;99.90;;;;;;6124139;23;20029;-83
2022/01/17 01:49:13;;;;;;;47.25;25.23;;;1.30;99.90;;;;;;6124663;23;20022;-82
2022/01/17 01:51:39;;;;;;;46.65;25.75;;;1.30;99.90;;;;;;6124614;23;20018;-82
2022/01/17 01:54:07;;;;;;;46.70;25.15;;;1.40;99.90;;;;;;6126330;23;20069;-82
2022/01/17 01:56:36;;;;;;;46.35;25.30;;;1.50;99.90;;;;;;6125881;23;20322;-82
2022/01/17 01:59:02;;;;;;;46.83;26.48;;;1.30;99.90;;;;;;6124834;23;20006;-82
2022/01/17 02:01:28;;;;;;;46.55;26.13;;;1.20;99.90;;;;;;6126454;23;20250;-82
2022/01/17 02:03:54;;;;;;;47.80;26.15;;;1.30;99.90;;;;;;6125920;23;20002;-82
2022/01/17 02:06:19;;;;;;;52.25;27.65;;;1.40;99.90;;;;;;6126128;23;19998;-82
2022/01/17 02:08:45;;;;;;;44.92;25.30;;;1.40;99.90;;;;;;6125941;23;20034;-81
2022/01/17 02:11:11;;;;;;;45.13;24.52;;;1.40;99.90;;;;;;6126985;23;20012;-82
2022/01/17 02:13:39;;;;;;;43.65;26.17;;;1.40;99.90;;;;;;6124759;23;20077;-82
2022/01/17 02:16:09;;;;;;;41.58;23.02;;;1.40;99.90;;;;;;6125874;23;20006;-82
2022/01/17 02:18:35;;;;;;;44.08;25.05;;;1.50;99.90;;;;;;6126462;23;20017;-82
2022/01/17 02:21:48;;;;;;;41.78;23.55;;;1.40;99.90;;;;;;6126462;23;20434;-82
2022/01/17 02:23:52;;;;;;;46.13;26.05;;;1.20;99.90;;;;;;6105805;23;20049;-82
2022/01/17 02:26:19;;;;;;;42.72;23.90;;;1.20;99.90;;;;;;6099887;23;20501;-82
2022/01/17 02:28:47;;;;;;;45.67;25.52;;;1.20;99.90;;;;;;6124314;23;20006;-82
2022/01/17 02:31:13;;;;;;;44.22;25.02;;;1.20;99.90;;;;;;6125815;23;19998;-82
2022/01/17 02:33:39;;;;;;;47.63;25.52;;;1.10;99.90;;;;;;6125744;23;20016;-82
2022/01/17 02:36:05;;;;;;;47.65;25.95;;;1.20;99.90;;;;;;6125598;23;20025;-82
2022/01/17 02:38:31;;;;;;;50.55;28.05;;;1.20;99.90;;;;;;6126119;23;20029;-82
2022/01/17 02:40:57;;;;;;;50.80;26.95;;;1.20;99.90;;;;;;6125565;23;20065;-82
2022/01/17 02:43:24;;;;;;;51.05;27.60;;;1.80;99.90;;;;;;6124870;23;20002;-82
2022/01/17 02:48:30;;;;;;;50.75;28.00;;;1.20;99.90;;;;;;6125763;23;20017;-81
2022/01/17 02:50:58;;;;;;;49.72;27.50;;;1.20;99.90;;;;;;6125860;23;20322;-82
2022/01/17 02:53:25;;;;;;;47.03;25.95;;;1.20;99.90;;;;;;6125502;23;20488;-82
2022/01/17 02:55:59;;;;;;;47.75;25.90;;;1.20;99.90;;;;;;6124947;23;20041;-82
2022/01/17 02:58:27;;;;;;;47.70;25.80;;;1.10;99.90;;;;;;6125217;23;20009;-82
2022/01/17 03:00:55;;;;;;;47.28;26.08;;;1.00;99.90;;;;;;6125833;23;20009;-82
2022/01/17 03:03:23;;;;;;;48.80;26.77;;;1.10;99.90;;;;;;6125234;23;20013;-82
2022/01/17 03:05:49;;;;;;;50.78;25.88;;;1.00;99.90;;;;;;6126202;23;20002;-82
2022/01/17 03:08:16;;;;;;;51.97;27.23;;;1.00;99.90;;;;;;6125580;23;20013;-82
2022/01/17 03:10:43;;;;;;;52.13;27.45;;;0.90;99.90;;;;;;6124294;23;20315;-81
2022/01/17 03:13:29;;;;;;;51.00;26.83;;;0.90;99.90;;;;;;6125700;23;20021;-82
2022/01/17 03:15:57;;;;;;;53.05;27.38;;;0.70;99.90;;;;;;6125569;23;19998;-82
2022/01/17 03:18:24;;;;;;;51.95;26.95;;;0.80;99.90;;;;;;6125711;23;20010;-82
2022/01/17 03:20:50;;;;;;;53.55;26.90;;;0.90;99.90;;;;;;6127281;23;20002;-82
2022/01/17 03:23:17;;;;;;;53.45;26.30;;;0.90;99.90;;;;;;6126051;23;20093;-82
2022/01/17 03:25:42;;;;;;;49.05;26.83;;;0.70;99.90;;;;;;6126056;23;20318;-82
2022/01/17 03:28:08;;;;;;;48.97;26.65;;;0.80;99.90;;;;;;6125401;23;20013;-81
2022/01/17 03:30:34;;;;;;;52.40;26.65;;;0.80;99.90;;;;;;6125465;23;20065;-82
2022/01/17 03:33:05;;;;;;;51.60;25.75;;;0.90;99.90;;;;;;6125782;23;20472;-82
2022/01/17 03:35:31;;;;;;;48.95;26.55;;;1.00;99.90;;;;;;6125920;23;20006;-82
2022/01/17 03:37:57;;;;;;;49.58;26.75;;;1.00;99.90;;;;;;6124912;23;20049;-82
2022/01/17 03:40:23;;;;;;;47.28;25.20;;;1.10;99.90;;;;;;6123824;23;20006;-82
2022/01/17 03:42:49;;;;;;;50.67;26.42;;;1.10;99.90;;;;;;6125347;23;20006;-82
2022/01/17 03:45:15;;;;;;;46.45;26.20;;;1.00;99.90;;;;;;6125771;23;20444;-82
2022/01/17 03:47:44;;;;;;;47.90;26.05;;;1.50;99.90;;;;;;6124945;23;20464;-82
2022/01/17 03:50:15;;;;;;;48.08;25.67;;;0.90;99.90;;;;;;6125146;23;19998;-82
2022/01/17 03:52:41;;;;;;;48.58;26.73;;;0.80;99.90;;;;;;6125134;23;20006;-82
2022/01/17 03:55:09;;;;;;;47.72;25.45;;;0.80;99.90;;;;;;6123894;23;19998;-82
2022/01/17 03:57:35;;;;;;;52.63;27.00;;;0.90;99.90;;;;;;6124664;23;20014;-82
2022/01/17 04:00:02;;;;;;;49.97;26.83;;;0.80;99.90;;;;;;6124935;23;20009;-82
2022/01/17 04:02:27;;;;;;;50.58;27.85;;;0.90;99.90;;;;;;6124906;23;20085;-82
2022/01/17 04:04:53;;;;;;;53.90;27.45;;;0.90;99.90;;;;;;6125446;23;20089;-82
2022/01/17 04:07:18;;;;;;;56.13;28.67;;;0.80;99.90;;;;;;6125091;23;20008;-82
2022/01/17 04:09:44;;;;;;;56.67;28.83;;;0.90;99.90;;;;;;6125499;23;20001;-82
2022/01/17 04:12:10;;;;;;;56.45;28.90;;;0.80;99.90;;;;;;6124892;23;20006;-82
2022/01/17 04:14:38;;;;;;;58.00;28.33;;;0.70;99.90;;;;;;6125066;23;20487;-82
2022/01/17 04:17:06;;;;;;;58.15;29.63;;;0.70;99.90;;;;;;6125195;23;20344;-82
2022/01/17 04:19:32;;;;;;;59.42;29.73;;;0.80;99.90;;;;;;6125375;23;20033;-82
2022/01/17 04:21:57;;;;;;;57.30;29.90;;;0.70;99.90;;;;;;6125061;23;20468;-82
2022/01/17 04:24:23;;;;;;;58.75;28.67;;;0.70;99.90;;;;;;6123495;23;20010;-82
2022/01/17 04:26:49;;;;;;;60.10;30.75;;;0.80;99.90;;;;;;6124294;23;20016;-82
2022/01/17 04:29:15;;;;;;;55.58;28.92;;;0.70;99.90;;;;;;6125322;23;20432;-82
2022/01/17 04:31:41;;;;;;;56.60;29.88;;;0.80;99.90;;;;;;6125043;23;20322;-82
2022/01/17 04:34:06;;;;;;;53.53;28.50;;;0.90;99.90;;;;;;6124549;23;20006;-82
2022/01/17 04:36:32;;;;;;;56.13;28.75;;;0.90;99.90;;;;;;6124660;23;20345;-82
2022/01/17 04:38:57;;;;;;;50.67;28.15;;;0.90;99.90;;;;;;6123702;23;20006;-82
2022/01/17 04:41:34;;;;;;;54.45;28.55;;;0.90;99.90;;;;;;6125002;23;20002;-82
2022/01/17 04:45:07;;;;;;;56.60;29.90;;;1.60;99.90;;;;;;6124875;23;20005;-82
2022/01/17 04:46:45;;;;;;;60.00;29.98;;;1.00;99.90;;;;;;6124641;23;20453;-82
2022/01/17 04:49:14;;;;;;;62.50;30.65;;;0.90;99.90;;;;;;6123190;23;20086;-82
2022/01/17 04:51:40;;;;;;;60.38;29.55;;;1.20;99.90;;;;;;6124599;23;20006;-82
2022/01/17 04:56:44;;;;;;;63.03;31.20;;;0.90;99.90;;;;;;6124701;23;20022;-82
2022/01/17 04:59:09;;;;;;;59.38;30.25;;;1.00;99.90;;;;;;6124150;23;20150;-82
2022/01/17 05:01:44;;;;;;;58.42;29.88;;;0.80;99.90;;;;;;6124673;23;20013;-82
2022/01/17 05:04:09;;;;;;;61.55;31.55;;;0.90;99.90;;;;;;6124577;23;20374;-82
2022/01/17 05:06:35;;;;;;;59.33;29.35;;;1.00;99.90;;;;;;6123967;23;20002;-82
2022/01/17 05:09:03;;;;;;;60.63;30.10;;;1.00;99.90;;;;;;6124428;23;20012;-82
2022/01/17 05:11:30;;;;;;;58.33;29.33;;;1.00;99.90;;;;;;6123980;23;20445;-82
2022/01/17 05:13:56;;;;;;;62.17;29.30;;;1.00;99.90;;;;;;6124837;23;20014;-82
2022/01/17 05:16:29;;;;;;;63.08;30.67;;;1.10;99.90;;;;;;6124232;23;20006;-82
2022/01/17 05:21:39;;;;;;;62.47;30.80;;;1.30;99.90;;;;;;6124115;23;20349;-82
2022/01/17 05:24:05;;;;;;;61.58;30.67;;;1.10;99.90;;;;;;6123455;23;20013;-82
2022/01/17 05:26:30;;;;;;;60.78;30.75;;;1.20;99.90;;;;;;6124301;23;20009;-82
2022/01/17 05:28:56;;;;;;;61.10;29.20;;;1.10;99.90;;;;;;6124447;23;20443;-82
2022/01/17 05:31:21;;;;;;;61.30;30.52;;;1.20;99.90;;;;;;6124351;23;20014;-82
2022/01/17 05:33:47;;;;;;;64.88;30.83;;;1.10;99.90;;;;;;6124632;23;20002;-82
2022/01/17 05:36:13;;;;;;;63.67;29.85;;;1.00;99.90;;;;;;6124187;23;20333;-82
2022/01/17 05:38:38;;;;;;;66.60;30.98;;;0.90;99.90;;;;;;6123589;23;20006;-82
2022/01/17 05:41:04;;;;;;;66.85;31.40;;;0.90;99.90;;;;;;6124447;23;20029;-82
2022/01/17 05:43:30;;;;;;;66.00;31.30;;;1.00;99.90;;;;;;6124339;23;20009;-82
2022/01/17 05:45:55;;;;;;;67.00;31.30;;;1.10;99.90;;;;;;6124277;23;20077;-81
2022/01/17 05:48:21;;;;;;;63.20;31.33;;;0.90;99.90;;;;;;6124108;23;20018;-82
2022/01/17 05:50:47;;;;;;;64.30;30.83;;;0.90;99.90;;;;;;6124031;23;20073;-82
2022/01/17 05:53:14;;;;;;;65.35;32.40;;;1.00;99.90;;;;;;6123902;23;20016;-82
2022/01/17 05:55:40;;;;;;;68.38;30.77;;;1.10;99.90;;;;;;6124428;23;20006;-82
2022/01/17 05:58:06;;;;;;;70.70;33.00;;;1.20;99.90;;;;;;6124414;23;20018;-82
2022/01/17 06:00:32;;;;;;;74.03;36.60;;;1.10;99.90;;;;;;6124157;23;20008;-82
2022/01/17 06:02:58;;;;;;;70.97;34.63;;;1.20;99.90;;;;;;6124490;23;20005;-82
2022/01/17 06:05:23;;;;;;;66.07;32.55;;;1.20;99.90;;;;;;6124102;23;20085;-82
2022/01/17 06:07:52;;;;;;;72.57;32.38;;;1.30;99.90;;;;;;6123696;23;20374;-82
2022/01/17 06:10:17;;;;;;;68.07;32.47;;;1.40;99.90;;;;;;6124750;23;20016;-81
2022/01/17 06:12:43;;;;;;;72.00;31.38;;;1.30;99.90;;;;;;6123928;23;20077;-83
2022/01/17 06:15:09;;;;;;;68.43;31.73;;;1.30;99.90;;;;;;6124160;23;20029;-82
2022/01/17 06:17:35;;;;;;;69.03;32.72;;;1.10;99.90;;;;;;6124618;23;20018;-82
2022/01/17 06:20:01;;;;;;;69.68;32.83;;;1.20;99.90;;;;;;6123561;23;20024;-82
2022/01/17 06:22:26;;;;;;;72.07;33.10;;;1.20;99.90;;;;;;6124184;23;20001;-82
2022/01/17 06:24:52;;;;;;;78.15;34.90;;;1.10;99.90;;;;;;6124196;23;20432;-81
2022/01/17 06:27:18;;;;;;;73.72;33.45;;;1.20;99.90;;;;;;6123510;23;20002;-82
2022/01/17 06:29:44;;;;;;;74.57;34.53;;;1.20;99.90;;;;;;6124297;23;20385;-82
2022/01/17 06:32:10;;;;;;;74.93;33.22;;;1.20;99.90;;;;;;6123846;23;20014;-82
2022/01/17 06:34:35;;;;;;;73.78;33.08;;;1.30;99.90;;;;;;6123151;23;20009;-82
2022/01/17 06:37:02;;;;;;;75.30;33.47;;;1.30;99.90;;;;;;6124175;23;20014;-82
2022/01/17 06:39:27;;;;;;;76.90;34.10;;;1.30;99.90;;;;;;6125441;23;20448;-82
2022/01/17 06:41:53;;;;;;;80.53;35.20;;;1.40;99.90;;;;;;6125946;23;20006;-82
2022/01/17 06:44:19;;;;;;;84.35;35.53;;;1.40;99.90;;;;;;6125699;23;20029;-82
2022/01/17 06:46:44;;;;;;;80.15;35.15;;;1.40;99.90;;;;;;6124406;23;20037;-82
2022/01/17 06:49:10;;;;;;;79.30;34.25;;;1.20;99.90;;;;;;6123833;23;20089;-82
2022/01/17 06:51:36;;;;;;;80.32;33.85;;;1.00;99.90;;;;;;6125645;23;20002;-81
2022/01/17 06:54:02;;;;;;;73.45;33.30;;;1.10;99.90;;;;;;6125157;23;20002;-83
2022/01/17 06:56:28;;;;;;;79.57;34.55;;;1.10;99.90;;;;;;6125739;23;20421;-85
2022/01/17 06:58:54;;;;;;;84.38;35.08;;;1.00;99.90;;;;;;6100448;23;20012;-84
2022/01/17 07:01:21;;;;;;;82.10;35.05;;;1.00;99.90;;;;;;6125770;23;20437;-83
2022/01/17 07:03:48;;;;;;;79.78;34.63;;;0.90;99.90;;;;;;6124985;23;19998;-84
2022/01/17 07:06:14;;;;;;;80.15;33.88;;;1.10;99.90;;;;;;6125462;23;20459;-86
2022/01/17 07:08:40;;;;;;;82.32;34.78;;;1.20;99.90;;;;;;6100089;23;20384;-86
2022/01/17 07:11:06;;;;;;;85.03;35.00;;;1.20;99.90;;;;;;6125452;23;20002;-86
2022/01/17 07:13:31;;;;;;;83.50;34.45;;;1.10;99.90;;;;;;6125501;23;20010;-85
2022/01/17 07:15:57;;;;;;;77.28;34.30;;;1.10;99.90;;;;;;6125091;23;20016;-86
2022/01/17 07:18:23;;;;;;;85.60;35.65;;;1.30;99.90;;;;;;6125115;23;20089;-85
2022/01/17 07:20:49;;;;;;;80.55;34.90;;;1.40;99.90;;;;;;6125073;23;20108;-86
2022/01/17 07:23:15;;;;;;;93.50;34.35;;;1.50;99.90;;;;;;6124445;23;20006;-85
2022/01/17 07:25:41;;;;;;;79.22;34.25;;;1.40;99.90;;;;;;6125647;23;20014;-85
2022/01/17 07:28:13;;;;;;;85.82;33.58;;;1.30;99.90;;;;;;6125656;23;20017;-83
2022/01/17 07:30:38;;;;;;;78.47;32.83;;;1.40;99.90;;;;;;6124976;23;20009;-84
2022/01/17 07:33:05;;;;;;;78.15;32.67;;;1.10;99.90;;;;;;6125220;23;20039;-84
2022/01/17 07:35:32;;;;;;;79.65;31.38;;;1.50;99.90;;;;;;6125862;23;20013;-84
2022/01/17 07:37:58;;;;;;;81.53;32.40;;;1.40;99.90;;;;;;6124217;23;20093;-84
2022/01/17 07:40:24;;;;;;;84.60;33.58;;;1.40;99.90;;;;;;6125742;23;20037;-84
2022/01/17 07:42:50;;;;;;;75.68;33.55;;;1.30;99.90;;;;;;6124410;23;20006;-84
2022/01/17 07:45:18;;;;;;;85.45;34.22;;;1.30;99.90;;;;;;6124613;23;20005;-84
2022/01/17 07:50:21;;;;;;;83.72;34.13;;;1.40;99.90;;;;;;6125371;23;20002;-84
2022/01/17 07:52:48;;;;;;;82.75;33.25;;;1.40;99.90;;;;;;6124131;23;20073;-85
2022/01/17 07:55:15;;;;;;;95.30;35.15;;;1.40;99.90;;;;;;6124979;23;20013;-84
2022/01/17 07:57:41;;;;;;;88.20;32.40;;;1.30;99.90;;;;;;6125176;23;20017;-84
2022/01/17 08:00:10;;;;;;;84.10;33.42;;;1.20;99.90;;;;;;6124606;23;20006;-84
2022/01/17 08:02:35;;;;;;;90.85;33.42;;;1.30;99.90;;;;;;6124182;23;20326;-85
2022/01/17 08:05:02;;;;;;;78.13;31.60;;;1.30;99.90;;;;;;6125442;23;20009;-84
2022/01/17 08:07:28;;;;;;;81.88;30.88;;;1.30;99.90;;;;;;6124415;23;20006;-84
2022/01/17 08:09:54;;;;;;;83.50;31.17;;;1.40;99.90;;;;;;6124602;23;20010;-84
2022/01/17 08:12:20;;;;;;;72.65;30.48;;;1.30;99.90;;;;;;6124968;23;20433;-84
2022/01/17 08:14:46;;;;;;;95.07;33.25;;;1.60;99.90;;;;;;6124620;23;20240;-84
2022/01/17 08:17:12;;;;;;;86.32;32.55;;;1.50;99.90;;;;;;6125051;23;20092;-85
2022/01/17 08:19:38;;;;;;;86.95;33.60;;;1.40;99.90;;;;;;6125338;23;20429;-84
2022/01/17 08:22:05;;;;;;;87.40;34.33;;;1.40;99.90;;;;;;6123840;23;20034;-85
2022/01/17 08:24:33;;;;;;;77.25;33.58;;;1.50;99.90;;;;;;6125413;23;19998;-83
2022/01/17 08:26:59;;;;;;;85.25;33.35;;;1.40;99.90;;;;;;6124611;23;20337;-83
2022/01/17 08:29:26;;;;;;;74.32;33.72;;;1.70;99.90;;;;;;6123658;23;20046;-83
2022/01/17 08:31:53;;;;;;;86.70;34.47;;;1.70;99.90;;;;;;6124801;23;20089;-83
2022/01/17 08:34:19;;;;;;;76.22;33.88;;;2.20;99.90;;;;;;6125260;23;20053;-85
2022/01/17 08:36:45;;;;;;;80.18;34.42;;;1.70;99.90;;;;;;6124059;23;20018;-83
2022/01/17 08:39:11;;;;;;;71.30;32.80;;;1.80;99.90;;;;;;6124601;23;20377;-84
2022/01/17 08:41:42;;;;;;;70.82;33.65;;;1.80;99.90;;;;;;6124392;23;20035;-83
2022/01/17 08:44:08;;;;;;;65.75;30.23;;;1.90;99.90;;;;;;6098256;23;20149;-83
2022/01/17 08:46:34;;;;;;;66.65;30.13;;;1.90;99.90;;;;;;6124739;23;20006;-84
2022/01/17 08:48:59;;;;;;;70.43;31.95;;;1.90;99.90;;;;;;6124599;23;20044;-83
2022/01/17 08:51:25;;;;;;;70.75;31.58;;;1.80;99.90;;;;;;6123297;23;20002;-83
2022/01/17 08:53:51;;;;;;;100.63;40.00;;;2.40;99.90;;;;;;6097958;23;20006;-83
2022/01/17 08:56:16;;;;;;;64.90;29.13;;;1.70;99.90;;;;;;6124508;23;20018;-83
2022/01/17 08:58:42;;;;;;;64.03;30.05;;;1.80;99.90;;;;;;6123578;23;20002;-82
2022/01/17 09:01:08;;;;;;;68.28;31.35;;;1.80;99.90;;;;;;6124309;23;20006;-85
2022/01/17 09:03:34;;;;;;;59.72;28.65;;;2.00;99.90;;;;;;6124743;23;20341;-84
2022/01/17 09:05:59;;;;;;;65.00;30.83;;;1.90;99.90;;;;;;6124450;23;20049;-85
2022/01/17 09:08:25;;;;;;;63.63;30.30;;;2.40;99.90;;;;;;6124134;23;20500;-84
2022/01/17 09:10:54;;;;;;;65.78;28.83;;;1.90;99.90;;;;;;6124870;23;20010;-84
2022/01/17 09:13:20;;;;;;;64.43;27.48;;;2.10;99.90;;;;;;6124137;23;20337;-84
2022/01/17 09:15:46;;;;;;;63.10;29.42;;;1.90;99.90;;;;;;6124257;23;20002;-84
2022/01/17 09:18:14;;;;;;;63.72;30.83;;;2.00;99.90;;;;;;6124251;23;20039;-84
2022/01/17 09:20:40;;;;;;;64.47;29.40;;;2.60;99.90;;;;;;6123452;23;20025;-84
2022/01/17 09:23:06;;;;;;;64.65;28.52;;;2.20;99.90;;;;;;6125040;23;20025;-84
2022/01/17 09:25:33;;;;;;;63.65;29.17;;;2.40;99.90;;;;;;6125092;23;19998;-84
2022/01/17 09:27:58;;;;;;;66.32;29.63;;;2.40;99.90;;;;;;6123743;23;20075;-84
2022/01/17 09:30:24;;;;;;;65.80;30.70;;;2.50;99.90;;;;;;6124255;23;20009;-83
2022/01/17 09:32:50;;;;;;;62.83;28.38;;;2.50;99.90;;;;;;6124439;23;20009;-83
2022/01/17 09:35:15;;;;;;;61.58;27.33;;;2.30;99.90;;;;;;6123881;23;20017;-83
2022/01/17 09:37:42;;;;;;;64.72;28.52;;;2.30;99.90;;;;;;6123913;23;20010;-83
2022/01/17 09:40:09;;;;;;;62.08;28.58;;;2.40;99.90;;;;;;6123912;23;19998;-84
2022/01/17 09:42:36;;;;;;;69.85;30.95;;;2.50;99.90;;;;;;6124025;23;20033;-84
2022/01/17 09:45:12;;;;;;;63.33;29.85;;;2.90;99.90;;;;;;6123935;23;20460;-85
2022/01/17 09:47:39;;;;;;;65.05;29.83;;;2.30;99.90;;;;;;6123918;23;20045;-84
2022/01/17 09:50:12;;;;;;;64.05;29.73;;;2.40;99.90;;;;;;6124612;23;20126;-83
2022/01/17 09:52:44;;;;;;;68.15;30.33;;;2.40;99.90;;;;;;6123975;23;20084;-83
2022/01/17 09:55:12;;;;;;;65.18;30.50;;;2.30;99.90;;;;;;6123639;23;20476;-86
2022/01/17 09:57:49;;;;;;;62.67;28.75;;;2.40;99.90;;;;;;6123317;23;20009;-83
2022/01/17 10:00:17;;;;;;;62.55;29.45;;;2.60;99.90;;;;;;6123906;23;20006;-83
2022/01/17 10:02:43;;;;;;;59.38;29.48;;;2.70;99.90;;;;;;6124242;23;20010;-83
2022/01/17 10:05:10;;;;;;;64.45;29.98;;;2.70;99.90;;;;;;6123493;23;20520;-84
2022/01/17 10:08:04;;;;;;;66.93;30.50;;;2.90;99.90;;;;;;6125185;23;19998;-83
2022/01/17 10:10:50;;;;;;;62.97;29.33;;;3.00;99.90;;;;;;6124697;23;20085;-84
2022/01/17 10:13:25;;;;;;;63.80;29.38;;;2.80;99.90;;;;;;6125564;23;20010;-84
2022/01/17 10:15:58;;;;;;;62.70;29.00;;;2.80;99.90;;;;;;6124752;23;20045;-85
2022/01/17 10:18:32;;;;;;;61.83;30.05;;;3.40;99.90;;;;;;6126180;23;20448;-84
2022/01/17 10:21:06;;;;;;;60.00;28.13;;;3.40;99.90;;;;;;6126093;23;20009;-84
2022/01/17 10:35:13;;;;;;;65.65;30.60;;;3.00;99.90;;;;;;6036621;23;20015;-84
2022/01/17 10:37:40;;;;;;;61.80;30.00;;;3.10;99.90;;;;;;6035669;23;20022;-84
2022/01/17 10:40:15;;;;;;;66.65;30.48;;;3.40;99.90;;;;;;6035137;23;20003;-84
2022/01/17 10:42:47;;;;;;;66.88;30.05;;;2.90;99.90;;;;;;6035915;23;20046;-83
2022/01/17 10:45:15;;;;;;;63.53;29.63;;;3.10;99.90;;;;;;6036312;23;20446;-86
2022/01/17 10:47:45;;;;;;;64.75;29.25;;;3.00;99.90;;;;;;6036499;23;20043;-86
2022/01/17 10:50:15;;;;;;;62.28;28.98;;;3.10;99.90;;;;;;6035074;23;20007;-85
2022/01/17 10:52:43;;;;;;;60.80;28.38;;;2.70;99.90;;;;;;6035932;23;20086;-84
2022/01/17 10:55:12;;;;;;;59.97;29.40;;;2.90;99.90;;;;;;6035875;23;20015;-82
2022/01/17 10:57:42;;;;;;;65.90;29.70;;;3.40;99.90;;;;;;6035968;23;20011;-84
2022/01/17 11:00:11;;;;;;;61.55;29.13;;;3.00;99.90;;;;;;6012373;23;20008;-84
2022/01/17 11:02:38;;;;;;;61.53;30.40;;;3.10;99.90;;;;;;6036125;23;20042;-82
2022/01/17 11:05:07;;;;;;;61.42;29.50;;;3.10;99.90;;;;;;6035434;23;20013;-83
2022/01/17 11:07:39;;;;;;;59.05;29.52;;;2.90;99.90;;;;;;6046317;23;20012;-87
2022/01/17 11:10:08;;;;;;;61.72;29.88;;;3.10;99.90;;;;;;6124529;23;20025;-86
2022/01/17 11:12:34;;;;;;;58.92;29.33;;;3.10;99.90;;;;;;6125864;23;20057;-89
2022/01/17 11:14:59;;;;;;;65.03;30.10;;;3.30;99.90;;;;;;6126122;23;20010;-88
2022/01/17 11:17:38;;;;;;;65.95;32.22;;;3.30;99.90;;;;;;6125008;23;20018;-88
2022/01/17 11:20:08;;;;;;;67.05;31.17;;;3.70;99.90;;;;;;6125324;23;20009;-90
2022/01/17 11:22:40;;;;;;;65.18;30.13;;;3.60;99.90;;;;;;6125640;23;20081;-89
2022/01/17 11:25:09;;;;;;;67.82;32.25;;;4.20;99.90;;;;;;6124864;23;20391;-86
2022/01/17 11:27:35;;;;;;;68.15;32.00;;;3.40;99.90;;;;;;6125527;23;20006;-87
2022/01/17 11:30:02;;;;;;;63.75;31.42;;;3.80;99.90;;;;;;6099487;23;20006;-82
2022/01/17 11:32:28;;;;;;;63.20;31.10;;;3.60;99.90;;;;;;6125179;23;20070;-86
2022/01/17 11:35:00;;;;;;;61.58;30.10;;;3.70;99.90;;;;;;6124585;23;20002;-87
2022/01/17 11:37:26;;;;;;;60.78;29.83;;;3.50;99.90;;;;;;6098613;23;20013;-89
2022/01/17 11:39:57;;;;;;;62.67;31.42;;;4.00;99.90;;;;;;6099458;23;20341;-86
2022/01/17 11:42:35;;;;;;;64.57;30.35;;;3.50;99.90;;;;;;6125417;23;20485;-87
2022/01/17 11:45:04;;;;;;;61.17;30.15;;;3.40;99.90;;;;;;6125678;23;20006;-86
2022/01/17 11:48:00;;;;;;;65.25;30.70;;;3.20;99.90;;;;;;6125405;23;20017;-83
2022/01/17 11:50:32;;;;;;;59.83;29.98;;;3.00;99.90;;;;;;6123386;23;20013;-84
2022/01/17 11:53:07;;;;;;;63.10;30.90;;;2.90;99.90;;;;;;6124535;23;20357;-84
2022/01/17 11:55:53;;;;;;;60.70;29.90;;;3.10;99.90;;;;;;6124802;23;20013;-84
2022/01/17 11:58:32;;;;;;;67.40;30.98;;;3.20;99.90;;;;;;6124995;23;20452;-84
2022/01/17 12:01:00;;;;;;;64.47;30.60;;;3.50;99.90;;;;;;6125321;23;20444;-86
2022/01/17 12:03:40;;;;;;;66.20;30.88;;;3.00;99.90;;;;;;6098163;23;20413;-86
2022/01/17 12:06:20;;;;;;;64.35;31.50;;;3.50;99.90;;;;;;6124782;23;20349;-86
2022/01/17 12:08:46;;;;;;;68.78;31.98;;;3.50;99.90;;;;;;6099608;23;20006;-85
2022/01/17 12:11:27;;;;;;;66.53;31.73;;;3.10;99.90;;;;;;6125241;23;20010;-86
2022/01/17 12:13:58;;;;;;;67.80;31.20;;;3.20;99.90;;;;;;6125767;23;20013;-86
2022/01/17 12:16:30;;;;;;;64.47;31.15;;;3.60;99.90;;;;;;6125483;23;20052;-86
2022/01/17 12:19:04;;;;;;;60.55;30.02;;;3.00;99.90;;;;;;6125366;23;19998;-89
2022/01/17 12:22:05;;;;;;;70.82;32.58;;;3.10;99.90;;;;;;6098075;23;20014;-91
2022/01/17 12:24:38;;;;;;;70.72;32.08;;;3.00;99.90;;;;;;5983559;23;20011;-88
2022/01/17 12:27:10;;;;;;;67.10;31.38;;;3.10;99.90;;;;;;6007374;23;20466;-85
2022/01/17 12:29:54;;;;;;;71.13;31.33;;;3.00;99.90;;;;;;6006581;23;20008;-87
2022/01/17 12:32:26;;;;;;;71.55;30.85;;;3.00;99.90;;;;;;6007334;23;20454;-90
2022/01/17 12:34:53;;;;;;;65.28;31.30;;;3.00;99.90;;;;;;6007875;23;20008;-90
2022/01/17 12:37:32;;;;;;;70.93;32.15;;;2.70;99.90;;;;;;6006008;23;20565;-88
2022/01/17 12:40:19;;;;;;;65.60;31.17;;;2.90;99.90;;;;;;6007947;23;20059;-89
2022/01/17 12:43:06;;;;;;;67.05;31.92;;;2.80;99.90;;;;;;5998306;23;20011;-87
2022/01/17 12:45:32;;;;;;;69.40;32.05;;;2.90;99.90;;;;;;6006702;23;20008;-87
2022/01/17 12:48:00;;;;;;;70.55;32.58;;;3.00;99.90;;;;;;6006353;23;20026;-87
2022/01/17 12:50:28;;;;;;;69.10;32.13;;;3.20;99.90;;;;;;6005853;23;20031;-87
2022/01/17 12:52:56;;;;;;;69.60;31.45;;;3.00;99.90;;;;;;6006344;23;20447;-86
2022/01/17 12:55:25;;;;;;;74.18;34.35;;;3.70;99.90;;;;;;6006752;23;20008;-87
2022/01/17 12:57:50;;;;;;;76.13;34.63;;;3.60;99.90;;;;;;6033159;23;20085;-87
2022/01/17 13:00:18;;;;;;;83.40;35.03;;;3.70;99.90;;;;;;6097666;23;20026;-87
2022/01/17 13:02:50;;;;;;;69.47;32.58;;;3.40;99.90;;;;;;6123829;23;20017;-87
2022/01/17 13:05:21;;;;;;;78.22;33.90;;;3.40;99.90;;;;;;6124382;23;20376;-87
2022/01/17 13:07:47;;;;;;;73.10;34.60;;;3.60;99.90;;;;;;6098113;23;20038;-87
2022/01/17 13:10:13;;;;;;;72.70;34.28;;;3.50;99.90;;;;;;6124991;23;20389;-87
2022/01/17 13:12:42;;;;;;;80.32;35.30;;;3.90;99.90;;;;;;6124270;23;20006;-87
2022/01/17 13:15:10;;;;;;;84.15;35.88;;;4.10;99.90;;;;;;6124074;23;20346;-87
2022/01/17 13:17:36;;;;;;;80.57;36.50;;;3.40;99.90;;;;;;6124622;23;20017;-86
2022/01/17 13:20:04;;;;;;;80.88;34.90;;;3.10;99.90;;;;;;6123748;23;20011;-87